sensor_id;sensor_type;location;lat;lon;timestamp;temperature;humidity
5461;DHT22;2753;49.196;8.286;2022-11-06T00:00:53;7.90;99.90
5461;DHT22;2753;49.196;8.286;2022-11-06T00:03:19;7.90;99.90
5461;DHT22;2753;49.196;8.286;2022-11-06T00:05:45;7.70;99.90
5461;DHT22;2753;49.196;8.286;2022-11-06T00:08:37;7.70;99.90
5461;DHT22;2753;49.196;8.286;2022-11-06T00:11:13;7.60;99.90
5461;DHT22;2753;49.196;8.286;2022-11-06T00:13:40;7.60;99.90
5461;DHT22;2753;49.196;8.286;2022-11-06T00:16:08;7.50;99.90
5461;DHT22;2753;49.196;8.286;2022-11-06T00:18:35;7.60;99.90
5461;DHT22;2753;49.196;8.286;2022-11-06T00:23:41;7.50;99.90
5461;DHT22;2753;49.196;8.286;2022-11-06T00:26:08;7.40;99.90
5461;DHT22;2753;49.196;8.286;2022-11-06T00:28:35;7.40;99.90
5461;DHT22;2753;49.196;8.286;2022-11-06T00:31:03;7.30;99.90
5461;DHT22;2753;49.196;8.286;2022-11-06T00:33:29;7.30;99.90
5461;DHT22;2753;49.196;8.286;2022-11-06T00:35:54;7.30;99.90
5461;DHT22;2753;49.196;8.286;2022-11-06T00:38:20;7.20;99.90
5461;DHT22;2753;49.196;8.286;2022-11-06T00:40:46;7.30;99.90
5461;DHT22;2753;49.196;8.286;2022-11-06T00:43:12;7.20;99.90
5461;DHT22;2753;49.196;8.286;2022-11-06T00:45:38;7.20;99.90
5461;DHT22;2753;49.196;8.286;2022-11-06T00:48:03;7.10;99.90
5461;DHT22;2753;49.196;8.286;2022-11-06T00:50:29;7.20;99.90
5461;DHT22;2753;49.196;8.286;2022-11-06T00:52:56;7.20;99.90
5461;DHT22;2753;49.196;8.286;2022-11-06T00:55:22;7.20;99.90
5461;DHT22;2753;49.196;8.286;2022-11-06T00:57:49;7.20;99.90
5461;DHT22;2753;49.196;8.286;2022-11-06T01:00:16;7.20;99.90
5461;DHT22;2753;49.196;8.286;2022-11-06T01:02:44;7.10;99.90
5461;DHT22;2753;49.196;8.286;2022-11-06T01:05:10;7.10;99.90
5461;DHT22;2753;49.196;8.286;2022-11-06T01:07:37;7.00;99.90
5461;DHT22;2753;49.196;8.286;2022-11-06T01:10:04;7.00;99.90
5461;DHT22;2753;49.196;8.286;2022-11-06T01:12:31;7.00;99.90
5461;DHT22;2753;49.196;8.286;2022-11-06T01:14:57;7.00;99.90
5461;DHT22;2753;49.196;8.286;2022-11-06T01:17:23;7.00;99.90
5461;DHT22;2753;49.196;8.286;2022-11-06T01:19:49;7.00;99.90
5461;DHT22;2753;49.196;8.286;2022-11-06T01:22:15;7.00;99.90
5461;DHT22;2753;49.196;8.286;2022-11-06T01:24:41;7.00;99.90
5461;DHT22;2753;49.196;8.286;2022-11-06T01:27:08;7.10;99.90
5461;DHT22;2753;49.196;8.286;2022-11-06T01:29:34;7.00;99.90
5461;DHT22;2753;49.196;8.286;2022-11-06T01:32:01;7.00;99.90
5461;DHT22;2753;49.196;8.286;2022-11-06T01:34:26;7.00;99.90
5461;DHT22;2753;49.196;8.286;2022-11-06T01:36:52;7.00;99.90
5461;DHT22;2753;49.196;8.286;2022-11-06T01:39:18;6.90;99.90
5461;DHT22;2753;49.196;8.286;2022-11-06T01:41:47;6.90;99.90
5461;DHT22;2753;49.196;8.286;2022-11-06T01:47:03;6.90;99.90
5461;DHT22;2753;49.196;8.286;2022-11-06T01:49:33;6.90;99.90
5461;DHT22;2753;49.196;8.286;2022-11-06T01:52:09;6.80;99.90
5461;DHT22;2753;49.196;8.286;2022-11-06T01:54:38;6.70;99.90
5461;DHT22;2753;49.196;8.286;2022-11-06T01:59:34;6.60;99.90
5461;DHT22;2753;49.196;8.286;2022-11-06T02:02:02;6.50;99.90
5461;DHT22;2753;49.196;8.286;2022-11-06T02:04:36;6.50;99.90
5461;DHT22;2753;49.196;8.286;2022-11-06T02:07:03;6.60;99.90
5461;DHT22;2753;49.196;8.286;2022-11-06T02:09:31;6.60;99.90
5461;DHT22;2753;49.196;8.286;2022-11-06T02:12:13;6.60;99.90
5461;DHT22;2753;49.196;8.286;2022-11-06T02:17:46;6.70;99.90
5461;DHT22;2753;49.196;8.286;2022-11-06T03:11:30;6.60;99.90
5461;DHT22;2753;49.196;8.286;2022-11-06T03:19:47;6.30;99.90
5461;DHT22;2753;49.196;8.286;2022-11-06T03:25:34;6.20;99.90
5461;DHT22;2753;49.196;8.286;2022-11-06T03:30:25;6.20;99.90
5461;DHT22;2753;49.196;8.286;2022-11-06T03:38:37;6.10;99.90
5461;DHT22;2753;49.196;8.286;2022-11-06T03:41:09;6.10;99.90
5461;DHT22;2753;49.196;8.286;2022-11-06T03:43:37;6.10;99.90
5461;DHT22;2753;49.196;8.286;2022-11-06T03:46:14;6.10;99.90
5461;DHT22;2753;49.196;8.286;2022-11-06T03:48:54;6.10;99.90
5461;DHT22;2753;49.196;8.286;2022-11-06T03:51:37;6.10;99.90
5461;DHT22;2753;49.196;8.286;2022-11-06T03:54:15;6.10;99.90
5461;DHT22;2753;49.196;8.286;2022-11-06T03:56:47;6.10;99.90
5461;DHT22;2753;49.196;8.286;2022-11-06T03:59:16;6.10;99.90
5461;DHT22;2753;49.196;8.286;2022-11-06T04:01:49;6.10;99.90
5461;DHT22;2753;49.196;8.286;2022-11-06T04:04:26;6.20;99.90
5461;DHT22;2753;49.196;8.286;2022-11-06T04:07:00;6.20;99.90
5461;DHT22;2753;49.196;8.286;2022-11-06T04:09:30;6.10;99.90
5461;DHT22;2753;49.196;8.286;2022-11-06T04:12:19;6.10;99.90
5461;DHT22;2753;49.196;8.286;2022-11-06T04:15:07;6.10;99.90
5461;DHT22;2753;49.196;8.286;2022-11-06T04:48:58;6.10;99.90
5461;DHT22;2753;49.196;8.286;2022-11-06T04:51:30;5.70;99.90
5461;DHT22;2753;49.196;8.286;2022-11-06T04:53:58;5.70;99.90
5461;DHT22;2753;49.196;8.286;2022-11-06T04:58:57;5.70;99.90
5461;DHT22;2753;49.196;8.286;2022-11-06T05:01:22;5.50;99.90
5461;DHT22;2753;49.196;8.286;2022-11-06T05:03:48;5.70;99.90
5461;DHT22;2753;49.196;8.286;2022-11-06T05:06:14;5.70;99.90
5461;DHT22;2753;49.196;8.286;2022-11-06T05:08:40;5.70;99.90
5461;DHT22;2753;49.196;8.286;2022-11-06T05:11:06;5.70;99.90
5461;DHT22;2753;49.196;8.286;2022-11-06T05:13:32;5.60;99.90
5461;DHT22;2753;49.196;8.286;2022-11-06T05:15:59;5.60;99.90
5461;DHT22;2753;49.196;8.286;2022-11-06T05:18:26;5.60;99.90
5461;DHT22;2753;49.196;8.286;2022-11-06T05:20:52;5.60;99.90
5461;DHT22;2753;49.196;8.286;2022-11-06T05:23:36;5.60;99.90
5461;DHT22;2753;49.196;8.286;2022-11-06T05:26:06;5.60;99.90
5461;DHT22;2753;49.196;8.286;2022-11-06T05:28:32;5.70;99.90
5461;DHT22;2753;49.196;8.286;2022-11-06T05:30:58;5.60;99.90
5461;DHT22;2753;49.196;8.286;2022-11-06T05:33:24;5.60;99.90
5461;DHT22;2753;49.196;8.286;2022-11-06T05:35:51;5.50;99.90
5461;DHT22;2753;49.196;8.286;2022-11-06T05:38:16;5.50;99.90
5461;DHT22;2753;49.196;8.286;2022-11-06T05:40:42;5.50;99.90
5461;DHT22;2753;49.196;8.286;2022-11-06T05:43:08;5.40;99.90
5461;DHT22;2753;49.196;8.286;2022-11-06T05:45:34;5.40;99.90
5461;DHT22;2753;49.196;8.286;2022-11-06T05:47:59;5.40;99.90
5461;DHT22;2753;49.196;8.286;2022-11-06T05:50:26;5.30;99.90
5461;DHT22;2753;49.196;8.286;2022-11-06T05:52:52;5.40;99.90
5461;DHT22;2753;49.196;8.286;2022-11-06T05:55:18;5.40;99.90
5461;DHT22;2753;49.196;8.286;2022-11-06T05:57:45;5.40;99.90
5461;DHT22;2753;49.196;8.286;2022-11-06T06:00:12;5.40;99.90
5461;DHT22;2753;49.196;8.286;2022-11-06T06:27:05;5.40;99.90
5461;DHT22;2753;49.196;8.286;2022-11-06T06:29:31;5.20;99.90
5461;DHT22;2753;49.196;8.286;2022-11-06T06:31:57;5.20;99.90
5461;DHT22;2753;49.196;8.286;2022-11-06T06:34:23;5.10;99.90
5461;DHT22;2753;49.196;8.286;2022-11-06T06:36:53;5.20;99.90
5461;DHT22;2753;49.196;8.286;2022-11-06T06:39:19;5.30;99.90
5461;DHT22;2753;49.196;8.286;2022-11-06T06:41:45;5.20;99.90
5461;DHT22;2753;49.196;8.286;2022-11-06T06:44:12;5.20;99.90
5461;DHT22;2753;49.196;8.286;2022-11-06T06:46:38;5.20;99.90
5461;DHT22;2753;49.196;8.286;2022-11-06T06:49:03;5.10;99.90
5461;DHT22;2753;49.196;8.286;2022-11-06T06:51:29;5.20;99.90
5461;DHT22;2753;49.196;8.286;2022-11-06T06:53:55;5.20;99.90
5461;DHT22;2753;49.196;8.286;2022-11-06T06:56:21;5.20;99.90
5461;DHT22;2753;49.196;8.286;2022-11-06T06:58:47;5.20;99.90
5461;DHT22;2753;49.196;8.286;2022-11-06T07:01:13;5.20;99.90
5461;DHT22;2753;49.196;8.286;2022-11-06T07:03:39;5.30;99.90
5461;DHT22;2753;49.196;8.286;2022-11-06T07:06:05;5.30;99.90
5461;DHT22;2753;49.196;8.286;2022-11-06T07:08:32;5.30;99.90
5461;DHT22;2753;49.196;8.286;2022-11-06T07:11:06;5.40;99.90
5461;DHT22;2753;49.196;8.286;2022-11-06T07:13:32;5.40;99.90
5461;DHT22;2753;49.196;8.286;2022-11-06T07:15:58;5.40;99.90
5461;DHT22;2753;49.196;8.286;2022-11-06T07:18:24;5.40;99.90
5461;DHT22;2753;49.196;8.286;2022-11-06T07:20:50;5.40;99.90
5461;DHT22;2753;49.196;8.286;2022-11-06T07:23:16;5.40;99.90
5461;DHT22;2753;49.196;8.286;2022-11-06T07:25:41;5.40;99.90
5461;DHT22;2753;49.196;8.286;2022-11-06T07:28:07;5.50;99.90
5461;DHT22;2753;49.196;8.286;2022-11-06T07:30:34;5.50;99.90
5461;DHT22;2753;49.196;8.286;2022-11-06T07:33:01;5.60;99.90
5461;DHT22;2753;49.196;8.286;2022-11-06T07:35:28;5.70;99.90
5461;DHT22;2753;49.196;8.286;2022-11-06T07:37:53;5.70;99.90
5461;DHT22;2753;49.196;8.286;2022-11-06T07:40:19;5.70;99.90
5461;DHT22;2753;49.196;8.286;2022-11-06T07:42:45;5.80;99.90
5461;DHT22;2753;49.196;8.286;2022-11-06T07:45:10;5.90;99.90
5461;DHT22;2753;49.196;8.286;2022-11-06T07:47:36;5.90;99.90
5461;DHT22;2753;49.196;8.286;2022-11-06T07:50:02;6.00;99.90
5461;DHT22;2753;49.196;8.286;2022-11-06T07:52:28;6.00;99.90
5461;DHT22;2753;49.196;8.286;2022-11-06T07:54:55;6.10;99.90
5461;DHT22;2753;49.196;8.286;2022-11-06T07:57:20;6.10;99.90
5461;DHT22;2753;49.196;8.286;2022-11-06T07:59:46;6.10;99.90
5461;DHT22;2753;49.196;8.286;2022-11-06T08:02:12;6.10;99.90
5461;DHT22;2753;49.196;8.286;2022-11-06T08:04:38;6.10;99.90
5461;DHT22;2753;49.196;8.286;2022-11-06T08:07:04;6.10;99.90
5461;DHT22;2753;49.196;8.286;2022-11-06T08:09:30;6.10;99.90
5461;DHT22;2753;49.196;8.286;2022-11-06T08:11:58;6.10;99.90
5461;DHT22;2753;49.196;8.286;2022-11-06T08:14:24;6.10;99.90
5461;DHT22;2753;49.196;8.286;2022-11-06T08:16:50;6.20;99.90
5461;DHT22;2753;49.196;8.286;2022-11-06T08:19:15;6.40;99.90
5461;DHT22;2753;49.196;8.286;2022-11-06T08:21:41;6.20;99.90
5461;DHT22;2753;49.196;8.286;2022-11-06T08:24:07;6.30;99.90
5461;DHT22;2753;49.196;8.286;2022-11-06T08:26:33;6.30;99.90
5461;DHT22;2753;49.196;8.286;2022-11-06T08:28:58;6.30;99.90
5461;DHT22;2753;49.196;8.286;2022-11-06T08:31:24;6.30;99.90
5461;DHT22;2753;49.196;8.286;2022-11-06T08:33:50;6.40;99.90
5461;DHT22;2753;49.196;8.286;2022-11-06T08:36:16;6.40;99.90
5461;DHT22;2753;49.196;8.286;2022-11-06T08:38:42;6.40;99.90
5461;DHT22;2753;49.196;8.286;2022-11-06T08:41:10;6.40;99.90
5461;DHT22;2753;49.196;8.286;2022-11-06T08:43:37;6.40;99.90
5461;DHT22;2753;49.196;8.286;2022-11-06T08:46:08;6.50;99.90
5461;DHT22;2753;49.196;8.286;2022-11-06T08:48:35;6.50;99.90
5461;DHT22;2753;49.196;8.286;2022-11-06T08:51:01;6.60;99.90
5461;DHT22;2753;49.196;8.286;2022-11-06T08:53:28;6.60;99.90
5461;DHT22;2753;49.196;8.286;2022-11-06T08:55:54;6.60;99.90
5461;DHT22;2753;49.196;8.286;2022-11-06T08:58:21;6.70;99.90
5461;DHT22;2753;49.196;8.286;2022-11-06T09:00:47;6.80;99.90
5461;DHT22;2753;49.196;8.286;2022-11-06T09:05:42;6.90;99.90
5461;DHT22;2753;49.196;8.286;2022-11-06T09:08:09;7.20;99.90
5461;DHT22;2753;49.196;8.286;2022-11-06T09:10:37;7.30;99.90
5461;DHT22;2753;49.196;8.286;2022-11-06T09:13:03;7.40;99.90
5461;DHT22;2753;49.196;8.286;2022-11-06T09:15:29;7.50;99.90
5461;DHT22;2753;49.196;8.286;2022-11-06T09:17:56;7.60;99.90
5461;DHT22;2753;49.196;8.286;2022-11-06T09:20:23;7.70;99.90
5461;DHT22;2753;49.196;8.286;2022-11-06T09:22:50;7.80;99.90
5461;DHT22;2753;49.196;8.286;2022-11-06T09:25:16;7.90;99.90
5461;DHT22;2753;49.196;8.286;2022-11-06T09:27:48;8.00;99.90
5461;DHT22;2753;49.196;8.286;2022-11-06T09:30:18;8.10;99.90
5461;DHT22;2753;49.196;8.286;2022-11-06T09:32:53;8.20;99.90
5461;DHT22;2753;49.196;8.286;2022-11-06T09:35:21;8.20;99.90
5461;DHT22;2753;49.196;8.286;2022-11-06T09:37:47;8.30;99.90
5461;DHT22;2753;49.196;8.286;2022-11-06T09:40:20;8.30;99.90
5461;DHT22;2753;49.196;8.286;2022-11-06T09:45:37;8.40;99.90
5461;DHT22;2753;49.196;8.286;2022-11-06T09:55:48;8.50;99.90
5461;DHT22;2753;49.196;8.286;2022-11-06T09:58:49;8.40;99.90
5461;DHT22;2753;49.196;8.286;2022-11-06T10:01:20;8.40;99.90
5461;DHT22;2753;49.196;8.286;2022-11-06T10:03:51;8.50;99.90
5461;DHT22;2753;49.196;8.286;2022-11-06T10:06:21;8.60;99.90
5461;DHT22;2753;49.196;8.286;2022-11-06T10:08:47;8.80;99.90
5461;DHT22;2753;49.196;8.286;2022-11-06T10:20:17;8.90;99.90
5461;DHT22;2753;49.196;8.286;2022-11-06T10:23:02;9.00;99.90
5461;DHT22;2753;49.196;8.286;2022-11-06T10:25:42;9.10;99.90
5461;DHT22;2753;49.196;8.286;2022-11-06T10:28:36;9.10;99.90
5461;DHT22;2753;49.196;8.286;2022-11-06T10:33:59;9.20;99.90
5461;DHT22;2753;49.196;8.286;2022-11-06T10:36:38;9.40;99.90
5461;DHT22;2753;49.196;8.286;2022-11-06T10:39:42;9.40;99.90
5461;DHT22;2753;49.196;8.286;2022-11-06T10:44:38;9.60;99.90
5461;DHT22;2753;49.196;8.286;2022-11-06T10:47:19;9.00;99.90
5461;DHT22;2753;49.196;8.286;2022-11-06T10:52:47;9.70;99.90
5461;DHT22;2753;49.196;8.286;2022-11-06T11:00:40;10.00;99.90
5461;DHT22;2753;49.196;8.286;2022-11-06T11:03:23;10.20;99.90
5461;DHT22;2753;49.196;8.286;2022-11-06T11:05:50;10.30;99.90
5461;DHT22;2753;49.196;8.286;2022-11-06T11:11:29;10.40;99.90
5461;DHT22;2753;49.196;8.286;2022-11-06T11:16:31;10.40;99.90
5461;DHT22;2753;49.196;8.286;2022-11-06T11:24:22;10.70;99.90
5461;DHT22;2753;49.196;8.286;2022-11-06T11:27:12;10.70;99.90
5461;DHT22;2753;49.196;8.286;2022-11-06T11:29:44;10.70;99.90
5461;DHT22;2753;49.196;8.286;2022-11-06T11:32:17;10.80;99.90
5461;DHT22;2753;49.196;8.286;2022-11-06T11:34:45;10.90;99.90
5461;DHT22;2753;49.196;8.286;2022-11-06T11:37:32;11.00;99.90
5461;DHT22;2753;49.196;8.286;2022-11-06T11:40:31;11.00;99.90
5461;DHT22;2753;49.196;8.286;2022-11-06T11:46:04;10.90;99.90
5461;DHT22;2753;49.196;8.286;2022-11-06T11:48:44;10.90;99.90
5461;DHT22;2753;49.196;8.286;2022-11-06T11:51:34;10.90;99.90
5461;DHT22;2753;49.196;8.286;2022-11-06T11:54:17;10.90;99.90
5461;DHT22;2753;49.196;8.286;2022-11-06T12:04:42;10.90;99.90
5461;DHT22;2753;49.196;8.286;2022-11-06T12:07:24;10.80;99.90
5461;DHT22;2753;49.196;8.286;2022-11-06T12:09:52;10.80;99.90
5461;DHT22;2753;49.196;8.286;2022-11-06T12:12:38;10.80;99.90
5461;DHT22;2753;49.196;8.286;2022-11-06T12:15:29;10.80;99.90
5461;DHT22;2753;49.196;8.286;2022-11-06T12:20:55;10.80;99.90
5461;DHT22;2753;49.196;8.286;2022-11-06T12:23:45;10.90;99.90
5461;DHT22;2753;49.196;8.286;2022-11-06T12:29:07;10.90;99.90
5461;DHT22;2753;49.196;8.286;2022-11-06T12:31:37;10.90;99.90
5461;DHT22;2753;49.196;8.286;2022-11-06T12:34:09;10.90;99.90
5461;DHT22;2753;49.196;8.286;2022-11-06T12:36:42;10.90;99.90
5461;DHT22;2753;49.196;8.286;2022-11-06T12:39:21;10.90;99.90
5461;DHT22;2753;49.196;8.286;2022-11-06T12:41:49;10.90;99.90
5461;DHT22;2753;49.196;8.286;2022-11-06T12:44:16;10.90;99.90
5461;DHT22;2753;49.196;8.286;2022-11-06T12:58:10;10.80;99.90
5461;DHT22;2753;49.196;8.286;2022-11-06T13:12:03;10.70;99.90
5461;DHT22;2753;49.196;8.286;2022-11-06T13:17:23;10.70;99.90
5461;DHT22;2753;49.196;8.286;2022-11-06T13:30:45;10.60;99.90
5461;DHT22;2753;49.196;8.286;2022-11-06T13:33:25;10.60;99.90
5461;DHT22;2753;49.196;8.286;2022-11-06T13:35:53;10.60;99.90
5461;DHT22;2753;49.196;8.286;2022-11-06T13:38:33;10.60;99.90
5461;DHT22;2753;49.196;8.286;2022-11-06T13:41:04;10.60;99.90
5461;DHT22;2753;49.196;8.286;2022-11-06T13:49:09;10.60;99.90
5461;DHT22;2753;49.196;8.286;2022-11-06T13:52:01;10.60;99.90
5461;DHT22;2753;49.196;8.286;2022-11-06T14:00:24;10.50;99.90
5461;DHT22;2753;49.196;8.286;2022-11-06T14:06:03;10.50;99.90
5461;DHT22;2753;49.196;8.286;2022-11-06T14:08:40;10.50;99.90
5461;DHT22;2753;49.196;8.286;2022-11-06T14:11:17;10.50;99.90
5461;DHT22;2753;49.196;8.286;2022-11-06T14:14:23;10.50;99.90
5461;DHT22;2753;49.196;8.286;2022-11-06T14:17:10;10.50;99.90
5461;DHT22;2753;49.196;8.286;2022-11-06T14:19:36;10.40;99.90
5461;DHT22;2753;49.196;8.286;2022-11-06T14:22:25;10.40;99.90
5461;DHT22;2753;49.196;8.286;2022-11-06T14:24:52;10.50;99.90
5461;DHT22;2753;49.196;8.286;2022-11-06T14:29:59;10.50;99.90
5461;DHT22;2753;49.196;8.286;2022-11-06T14:32:37;10.50;99.90
5461;DHT22;2753;49.196;8.286;2022-11-06T14:38:14;10.50;99.90
5461;DHT22;2753;49.196;8.286;2022-11-06T14:40:40;10.50;99.90
5461;DHT22;2753;49.196;8.286;2022-11-06T14:46:14;10.40;99.90
5461;DHT22;2753;49.196;8.286;2022-11-06T14:48:46;10.40;99.90
5461;DHT22;2753;49.196;8.286;2022-11-06T14:51:14;10.40;99.90
5461;DHT22;2753;49.196;8.286;2022-11-06T14:53:52;10.40;99.90
5461;DHT22;2753;49.196;8.286;2022-11-06T14:56:29;10.30;99.90
5461;DHT22;2753;49.196;8.286;2022-11-06T14:59:07;10.30;99.90
5461;DHT22;2753;49.196;8.286;2022-11-06T15:01:36;10.30;99.90
5461;DHT22;2753;49.196;8.286;2022-11-06T15:04:05;10.30;99.90
5461;DHT22;2753;49.196;8.286;2022-11-06T15:09:14;10.20;99.90
5461;DHT22;2753;49.196;8.286;2022-11-06T15:19:52;10.10;99.90
5461;DHT22;2753;49.196;8.286;2022-11-06T15:22:34;10.00;99.90
5461;DHT22;2753;49.196;8.286;2022-11-06T15:25:22;10.00;99.90
5461;DHT22;2753;49.196;8.286;2022-11-06T15:28:10;10.00;99.90
5461;DHT22;2753;49.196;8.286;2022-11-06T15:31:01;10.00;99.90
5461;DHT22;2753;49.196;8.286;2022-11-06T15:36:16;10.00;99.90
5461;DHT22;2753;49.196;8.286;2022-11-06T15:38:43;9.90;99.90
5461;DHT22;2753;49.196;8.286;2022-11-06T15:41:23;9.80;99.90
5461;DHT22;2753;49.196;8.286;2022-11-06T15:43:52;9.80;99.90
5461;DHT22;2753;49.196;8.286;2022-11-06T15:46:26;9.80;99.90
5461;DHT22;2753;49.196;8.286;2022-11-06T15:51:31;9.80;99.90
5461;DHT22;2753;49.196;8.286;2022-11-06T15:53:57;9.80;99.90
5461;DHT22;2753;49.196;8.286;2022-11-06T15:56:30;9.80;99.90
5461;DHT22;2753;49.196;8.286;2022-11-06T15:59:05;9.70;99.90
5461;DHT22;2753;49.196;8.286;2022-11-06T16:01:32;9.70;99.90
5461;DHT22;2753;49.196;8.286;2022-11-06T16:03:59;9.60;99.90
5461;DHT22;2753;49.196;8.286;2022-11-06T16:06:27;9.60;99.90
5461;DHT22;2753;49.196;8.286;2022-11-06T16:08:54;9.50;99.90
5461;DHT22;2753;49.196;8.286;2022-11-06T16:11:21;9.50;99.90
5461;DHT22;2753;49.196;8.286;2022-11-06T16:13:47;9.60;99.90
5461;DHT22;2753;49.196;8.286;2022-11-06T16:18:58;9.60;99.90
5461;DHT22;2753;49.196;8.286;2022-11-06T16:21:28;9.50;99.90
5461;DHT22;2753;49.196;8.286;2022-11-06T16:23:58;9.60;99.90
5461;DHT22;2753;49.196;8.286;2022-11-06T16:28:57;9.50;99.90
5461;DHT22;2753;49.196;8.286;2022-11-06T16:31:28;9.50;99.90
5461;DHT22;2753;49.196;8.286;2022-11-06T16:34:01;9.50;99.90
5461;DHT22;2753;49.196;8.286;2022-11-06T16:36:28;9.50;99.90
5461;DHT22;2753;49.196;8.286;2022-11-06T16:44:43;9.40;99.90
5461;DHT22;2753;49.196;8.286;2022-11-06T16:49:37;9.40;99.90
5461;DHT22;2753;49.196;8.286;2022-11-06T16:52:29;9.40;99.90
5461;DHT22;2753;49.196;8.286;2022-11-06T16:57:44;9.30;99.90
5461;DHT22;2753;49.196;8.286;2022-11-06T17:05:25;9.30;99.90
5461;DHT22;2753;49.196;8.286;2022-11-06T17:10:45;9.20;99.90
5461;DHT22;2753;49.196;8.286;2022-11-06T17:13:18;9.20;99.90
5461;DHT22;2753;49.196;8.286;2022-11-06T17:16:02;9.20;99.90
5461;DHT22;2753;49.196;8.286;2022-11-06T17:18:30;9.30;99.90
5461;DHT22;2753;49.196;8.286;2022-11-06T17:20:58;9.20;99.90
5461;DHT22;2753;49.196;8.286;2022-11-06T17:23:25;9.20;99.90
5461;DHT22;2753;49.196;8.286;2022-11-06T17:26:00;9.20;99.90
5461;DHT22;2753;49.196;8.286;2022-11-06T17:28:27;9.10;99.90
5461;DHT22;2753;49.196;8.286;2022-11-06T17:30:53;9.00;99.90
5461;DHT22;2753;49.196;8.286;2022-11-06T17:33:19;9.00;99.90
5461;DHT22;2753;49.196;8.286;2022-11-06T17:35:48;9.10;99.90
5461;DHT22;2753;49.196;8.286;2022-11-06T17:38:15;9.00;99.90
5461;DHT22;2753;49.196;8.286;2022-11-06T17:40:42;9.10;99.90
5461;DHT22;2753;49.196;8.286;2022-11-06T17:43:09;9.00;99.90
5461;DHT22;2753;49.196;8.286;2022-11-06T17:45:35;9.00;99.90
5461;DHT22;2753;49.196;8.286;2022-11-06T17:48:01;9.00;99.90
5461;DHT22;2753;49.196;8.286;2022-11-06T17:50:27;9.00;99.90
5461;DHT22;2753;49.196;8.286;2022-11-06T17:52:53;9.00;99.90
5461;DHT22;2753;49.196;8.286;2022-11-06T17:55:18;9.00;99.90
5461;DHT22;2753;49.196;8.286;2022-11-06T17:57:44;9.00;99.90
5461;DHT22;2753;49.196;8.286;2022-11-06T18:00:10;8.90;99.90
5461;DHT22;2753;49.196;8.286;2022-11-06T18:02:37;8.90;99.90
5461;DHT22;2753;49.196;8.286;2022-11-06T18:05:03;9.00;99.90
5461;DHT22;2753;49.196;8.286;2022-11-06T18:07:29;8.90;99.90
5461;DHT22;2753;49.196;8.286;2022-11-06T18:09:55;8.90;99.90
5461;DHT22;2753;49.196;8.286;2022-11-06T18:12:21;8.80;99.90
5461;DHT22;2753;49.196;8.286;2022-11-06T18:14:50;8.80;99.90
5461;DHT22;2753;49.196;8.286;2022-11-06T18:17:16;8.80;99.90
5461;DHT22;2753;49.196;8.286;2022-11-06T18:19:42;8.80;99.90
5461;DHT22;2753;49.196;8.286;2022-11-06T18:22:07;8.80;99.90
5461;DHT22;2753;49.196;8.286;2022-11-06T18:24:36;8.70;99.90
5461;DHT22;2753;49.196;8.286;2022-11-06T18:27:01;8.80;99.90
5461;DHT22;2753;49.196;8.286;2022-11-06T18:29:27;8.70;99.90
5461;DHT22;2753;49.196;8.286;2022-11-06T18:31:53;8.80;99.90
5461;DHT22;2753;49.196;8.286;2022-11-06T18:34:18;8.80;99.90
5461;DHT22;2753;49.196;8.286;2022-11-06T18:36:46;8.70;99.90
5461;DHT22;2753;49.196;8.286;2022-11-06T18:39:12;8.80;99.90
5461;DHT22;2753;49.196;8.286;2022-11-06T18:41:38;8.80;99.90
5461;DHT22;2753;49.196;8.286;2022-11-06T18:44:03;8.80;99.90
5461;DHT22;2753;49.196;8.286;2022-11-06T18:46:29;8.80;99.90
5461;DHT22;2753;49.196;8.286;2022-11-06T18:48:55;8.70;99.90
5461;DHT22;2753;49.196;8.286;2022-11-06T18:51:27;8.80;99.90
5461;DHT22;2753;49.196;8.286;2022-11-06T18:53:57;8.70;99.90
5461;DHT22;2753;49.196;8.286;2022-11-06T18:56:23;8.70;99.90
5461;DHT22;2753;49.196;8.286;2022-11-06T18:58:53;8.70;99.90
5461;DHT22;2753;49.196;8.286;2022-11-06T19:01:19;8.70;99.90
5461;DHT22;2753;49.196;8.286;2022-11-06T19:03:47;8.70;99.90
5461;DHT22;2753;49.196;8.286;2022-11-06T19:06:32;8.80;99.90
5461;DHT22;2753;49.196;8.286;2022-11-06T19:08:58;8.70;99.90
5461;DHT22;2753;49.196;8.286;2022-11-06T19:11:23;8.80;99.90
5461;DHT22;2753;49.196;8.286;2022-11-06T19:13:49;8.80;99.90
5461;DHT22;2753;49.196;8.286;2022-11-06T19:16:16;8.80;99.90
5461;DHT22;2753;49.196;8.286;2022-11-06T19:18:43;8.80;99.90
5461;DHT22;2753;49.196;8.286;2022-11-06T19:21:10;8.80;99.90
5461;DHT22;2753;49.196;8.286;2022-11-06T19:23:38;8.90;99.90
5461;DHT22;2753;49.196;8.286;2022-11-06T19:26:06;8.90;99.90
5461;DHT22;2753;49.196;8.286;2022-11-06T19:28:32;8.80;99.90
5461;DHT22;2753;49.196;8.286;2022-11-06T19:30:58;8.80;99.90
5461;DHT22;2753;49.196;8.286;2022-11-06T19:33:23;8.80;99.90
5461;DHT22;2753;49.196;8.286;2022-11-06T19:35:49;8.80;99.90
5461;DHT22;2753;49.196;8.286;2022-11-06T19:38:15;8.80;99.90
5461;DHT22;2753;49.196;8.286;2022-11-06T19:40:40;8.80;99.90
5461;DHT22;2753;49.196;8.286;2022-11-06T19:43:06;8.80;99.90
5461;DHT22;2753;49.196;8.286;2022-11-06T19:45:33;8.80;99.90
5461;DHT22;2753;49.196;8.286;2022-11-06T19:47:59;8.80;99.90
5461;DHT22;2753;49.196;8.286;2022-11-06T19:50:25;8.80;99.90
5461;DHT22;2753;49.196;8.286;2022-11-06T19:52:51;8.80;99.90
5461;DHT22;2753;49.196;8.286;2022-11-06T19:55:16;8.80;99.90
5461;DHT22;2753;49.196;8.286;2022-11-06T19:57:43;8.80;99.90
5461;DHT22;2753;49.196;8.286;2022-11-06T20:00:09;8.80;99.90
5461;DHT22;2753;49.196;8.286;2022-11-06T20:02:35;8.80;99.90
5461;DHT22;2753;49.196;8.286;2022-11-06T20:05:21;8.80;99.90
5461;DHT22;2753;49.196;8.286;2022-11-06T20:07:53;8.80;99.90
5461;DHT22;2753;49.196;8.286;2022-11-06T20:10:20;8.80;99.90
5461;DHT22;2753;49.196;8.286;2022-11-06T20:22:06;8.80;99.90
5461;DHT22;2753;49.196;8.286;2022-11-06T20:24:31;8.80;99.90
5461;DHT22;2753;49.196;8.286;2022-11-06T20:27:13;8.80;99.90
5461;DHT22;2753;49.196;8.286;2022-11-06T20:30:00;8.80;99.90
5461;DHT22;2753;49.196;8.286;2022-11-06T20:35:49;8.80;99.90
5461;DHT22;2753;49.196;8.286;2022-11-06T20:38:16;8.80;99.90
5461;DHT22;2753;49.196;8.286;2022-11-06T20:40:47;8.80;99.90
5461;DHT22;2753;49.196;8.286;2022-11-06T20:43:13;8.80;99.90
5461;DHT22;2753;49.196;8.286;2022-11-06T20:45:39;8.80;99.90
5461;DHT22;2753;49.196;8.286;2022-11-06T20:48:07;8.80;99.90
5461;DHT22;2753;49.196;8.286;2022-11-06T20:50:33;8.80;99.90
5461;DHT22;2753;49.196;8.286;2022-11-06T20:53:00;8.80;99.90
5461;DHT22;2753;49.196;8.286;2022-11-06T20:55:25;8.90;99.90
5461;DHT22;2753;49.196;8.286;2022-11-06T20:57:51;8.80;99.90
5461;DHT22;2753;49.196;8.286;2022-11-06T21:00:17;8.80;99.90
5461;DHT22;2753;49.196;8.286;2022-11-06T21:02:43;8.90;99.90
5461;DHT22;2753;49.196;8.286;2022-11-06T21:05:09;8.90;99.90
5461;DHT22;2753;49.196;8.286;2022-11-06T21:07:35;8.90;99.90
5461;DHT22;2753;49.196;8.286;2022-11-06T21:12:31;8.90;99.90
5461;DHT22;2753;49.196;8.286;2022-11-06T21:14:56;8.90;99.90
5461;DHT22;2753;49.196;8.286;2022-11-06T21:17:22;8.90;99.90
5461;DHT22;2753;49.196;8.286;2022-11-06T21:19:48;8.90;99.90
5461;DHT22;2753;49.196;8.286;2022-11-06T21:22:14;8.90;99.90
5461;DHT22;2753;49.196;8.286;2022-11-06T21:24:39;8.90;99.90
5461;DHT22;2753;49.196;8.286;2022-11-06T21:27:05;8.90;99.90
5461;DHT22;2753;49.196;8.286;2022-11-06T21:29:31;8.90;99.90
5461;DHT22;2753;49.196;8.286;2022-11-06T21:31:57;8.90;99.90
5461;DHT22;2753;49.196;8.286;2022-11-06T21:34:23;8.90;99.90
5461;DHT22;2753;49.196;8.286;2022-11-06T21:36:48;8.90;99.90
5461;DHT22;2753;49.196;8.286;2022-11-06T21:39:17;9.00;99.90
5461;DHT22;2753;49.196;8.286;2022-11-06T21:41:43;9.00;99.90
5461;DHT22;2753;49.196;8.286;2022-11-06T21:44:12;9.00;99.90
5461;DHT22;2753;49.196;8.286;2022-11-06T21:46:38;9.00;99.90